sensor_id;sensor_type;location;lat;lon;timestamp;P1;durP1;ratioP1;P2;durP2;ratioP2
34278;SDS011;20538;51.528;9.942;2023-04-24T00:00:07;1.75;;;0.90;;
34278;SDS011;20538;51.528;9.942;2023-04-24T00:02:37;1.38;;;1.05;;
34278;SDS011;20538;51.528;9.942;2023-04-24T00:05:04;2.95;;;0.93;;
34278;SDS011;20538;51.528;9.942;2023-04-24T00:07:31;1.25;;;0.98;;
34278;SDS011;20538;51.528;9.942;2023-04-24T00:09:56;2.53;;;1.05;;
34278;SDS011;20538;51.528;9.942;2023-04-24T00:12:23;3.15;;;1.00;;
34278;SDS011;20538;51.528;9.942;2023-04-24T00:14:49;3.70;;;1.15;;
34278;SDS011;20538;51.528;9.942;2023-04-24T00:17:14;2.13;;;1.08;;
34278;SDS011;20538;51.528;9.942;2023-04-24T00:19:40;2.03;;;1.35;;
34278;SDS011;20538;51.528;9.942;2023-04-24T00:22:06;1.88;;;1.00;;
34278;SDS011;20538;51.528;9.942;2023-04-24T00:24:32;1.67;;;1.30;;
34278;SDS011;20538;51.528;9.942;2023-04-24T00:26:58;3.53;;;1.13;;
34278;SDS011;20538;51.528;9.942;2023-04-24T00:29:25;1.70;;;1.00;;
34278;SDS011;20538;51.528;9.942;2023-04-24T00:31:51;1.95;;;0.82;;
34278;SDS011;20538;51.528;9.942;2023-04-24T00:34:17;1.77;;;0.80;;
34278;SDS011;20538;51.528;9.942;2023-04-24T00:36:43;2.83;;;0.90;;
34278;SDS011;20538;51.528;9.942;2023-04-24T00:39:08;6.50;;;1.10;;
34278;SDS011;20538;51.528;9.942;2023-04-24T00:41:35;0.90;;;0.82;;
34278;SDS011;20538;51.528;9.942;2023-04-24T00:44:00;2.45;;;1.00;;
34278;SDS011;20538;51.528;9.942;2023-04-24T00:46:26;2.15;;;1.10;;
34278;SDS011;20538;51.528;9.942;2023-04-24T00:48:52;2.80;;;1.20;;
34278;SDS011;20538;51.528;9.942;2023-04-24T00:51:17;1.02;;;0.70;;
34278;SDS011;20538;51.528;9.942;2023-04-24T00:53:43;1.75;;;0.93;;
34278;SDS011;20538;51.528;9.942;2023-04-24T00:56:09;4.00;;;0.93;;
34278;SDS011;20538;51.528;9.942;2023-04-24T00:58:35;1.30;;;0.60;;
34278;SDS011;20538;51.528;9.942;2023-04-24T01:01:01;2.20;;;0.70;;
34278;SDS011;20538;51.528;9.942;2023-04-24T01:03:29;1.83;;;1.05;;
34278;SDS011;20538;51.528;9.942;2023-04-24T01:05:56;1.10;;;0.70;;
34278;SDS011;20538;51.528;9.942;2023-04-24T01:08:24;1.10;;;0.80;;
34278;SDS011;20538;51.528;9.942;2023-04-24T01:10:53;1.83;;;0.80;;
34278;SDS011;20538;51.528;9.942;2023-04-24T01:13:20;0.80;;;0.80;;
34278;SDS011;20538;51.528;9.942;2023-04-24T01:15:46;1.73;;;0.70;;
34278;SDS011;20538;51.528;9.942;2023-04-24T01:18:12;1.67;;;0.75;;
34278;SDS011;20538;51.528;9.942;2023-04-24T01:20:39;2.97;;;0.73;;
34278;SDS011;20538;51.528;9.942;2023-04-24T01:23:09;2.60;;;0.63;;
34278;SDS011;20538;51.528;9.942;2023-04-24T01:25:35;2.05;;;0.60;;
34278;SDS011;20538;51.528;9.942;2023-04-24T01:28:01;0.75;;;0.52;;
34278;SDS011;20538;51.528;9.942;2023-04-24T01:30:28;1.10;;;0.60;;
34278;SDS011;20538;51.528;9.942;2023-04-24T01:32:56;2.10;;;1.10;;
34278;SDS011;20538;51.528;9.942;2023-04-24T01:35:23;1.92;;;0.65;;
34278;SDS011;20538;51.528;9.942;2023-04-24T01:37:49;2.50;;;0.73;;
34278;SDS011;20538;51.528;9.942;2023-04-24T01:40:14;0.70;;;0.63;;
34278;SDS011;20538;51.528;9.942;2023-04-24T01:42:40;3.13;;;0.70;;
34278;SDS011;20538;51.528;9.942;2023-04-24T01:45:07;0.65;;;0.65;;
34278;SDS011;20538;51.528;9.942;2023-04-24T01:47:36;2.53;;;0.80;;
34278;SDS011;20538;51.528;9.942;2023-04-24T01:50:03;1.25;;;0.90;;
34278;SDS011;20538;51.528;9.942;2023-04-24T01:52:29;1.83;;;1.10;;
34278;SDS011;20538;51.528;9.942;2023-04-24T01:54:56;1.17;;;0.60;;
34278;SDS011;20538;51.528;9.942;2023-04-24T01:57:25;1.00;;;0.65;;
34278;SDS011;20538;51.528;9.942;2023-04-24T01:59:51;1.85;;;1.08;;
34278;SDS011;20538;51.528;9.942;2023-04-24T02:02:17;1.13;;;0.70;;
34278;SDS011;20538;51.528;9.942;2023-04-24T02:04:43;1.55;;;0.90;;
34278;SDS011;20538;51.528;9.942;2023-04-24T02:07:08;2.28;;;0.82;;
34278;SDS011;20538;51.528;9.942;2023-04-24T02:09:34;3.33;;;0.90;;
34278;SDS011;20538;51.528;9.942;2023-04-24T02:12:00;2.25;;;0.70;;
34278;SDS011;20538;51.528;9.942;2023-04-24T02:14:25;0.65;;;0.60;;
34278;SDS011;20538;51.528;9.942;2023-04-24T02:16:51;1.58;;;0.65;;
34278;SDS011;20538;51.528;9.942;2023-04-24T02:19:18;1.88;;;0.80;;
34278;SDS011;20538;51.528;9.942;2023-04-24T02:21:44;1.58;;;0.90;;
34278;SDS011;20538;51.528;9.942;2023-04-24T02:24:09;1.25;;;0.73;;
34278;SDS011;20538;51.528;9.942;2023-04-24T02:26:35;2.95;;;0.93;;
34278;SDS011;20538;51.528;9.942;2023-04-24T02:29:01;4.97;;;0.93;;
34278;SDS011;20538;51.528;9.942;2023-04-24T02:31:26;0.95;;;0.75;;
34278;SDS011;20538;51.528;9.942;2023-04-24T02:33:52;2.20;;;1.15;;
34278;SDS011;20538;51.528;9.942;2023-04-24T02:36:18;1.13;;;0.70;;
34278;SDS011;20538;51.528;9.942;2023-04-24T02:38:43;3.45;;;0.80;;
34278;SDS011;20538;51.528;9.942;2023-04-24T02:41:09;1.77;;;0.70;;
34278;SDS011;20538;51.528;9.942;2023-04-24T02:43:35;3.22;;;0.90;;
34278;SDS011;20538;51.528;9.942;2023-04-24T02:46:00;0.60;;;0.60;;
34278;SDS011;20538;51.528;9.942;2023-04-24T02:48:26;2.42;;;0.80;;
34278;SDS011;20538;51.528;9.942;2023-04-24T02:50:51;1.33;;;0.80;;
34278;SDS011;20538;51.528;9.942;2023-04-24T02:53:18;0.80;;;0.80;;
34278;SDS011;20538;51.528;9.942;2023-04-24T02:55:43;2.28;;;0.65;;
34278;SDS011;20538;51.528;9.942;2023-04-24T02:58:09;1.70;;;0.90;;
34278;SDS011;20538;51.528;9.942;2023-04-24T03:00:37;1.98;;;0.82;;
34278;SDS011;20538;51.528;9.942;2023-04-24T03:03:03;1.48;;;0.77;;
34278;SDS011;20538;51.528;9.942;2023-04-24T03:05:29;1.63;;;0.80;;
34278;SDS011;20538;51.528;9.942;2023-04-24T03:07:56;3.10;;;0.85;;
34278;SDS011;20538;51.528;9.942;2023-04-24T03:10:21;2.75;;;0.80;;
34278;SDS011;20538;51.528;9.942;2023-04-24T03:12:47;1.40;;;0.80;;
34278;SDS011;20538;51.528;9.942;2023-04-24T03:15:13;1.42;;;0.88;;
34278;SDS011;20538;51.528;9.942;2023-04-24T03:17:39;1.27;;;0.93;;
34278;SDS011;20538;51.528;9.942;2023-04-24T03:20:05;2.50;;;1.40;;
34278;SDS011;20538;51.528;9.942;2023-04-24T03:22:33;1.13;;;1.02;;
34278;SDS011;20538;51.528;9.942;2023-04-24T03:24:59;3.65;;;1.40;;
34278;SDS011;20538;51.528;9.942;2023-04-24T03:27:25;2.80;;;1.15;;
34278;SDS011;20538;51.528;9.942;2023-04-24T03:29:50;1.17;;;1.00;;
34278;SDS011;20538;51.528;9.942;2023-04-24T03:32:23;2.33;;;1.38;;
34278;SDS011;20538;51.528;9.942;2023-04-24T03:34:49;2.58;;;1.38;;
34278;SDS011;20538;51.528;9.942;2023-04-24T03:37:15;3.83;;;1.40;;
34278;SDS011;20538;51.528;9.942;2023-04-24T03:39:42;1.73;;;1.50;;
34278;SDS011;20538;51.528;9.942;2023-04-24T03:42:07;3.88;;;1.40;;
34278;SDS011;20538;51.528;9.942;2023-04-24T03:44:33;3.88;;;1.60;;
34278;SDS011;20538;51.528;9.942;2023-04-24T03:47:00;5.22;;;1.90;;
34278;SDS011;20538;51.528;9.942;2023-04-24T03:49:25;4.07;;;1.55;;
34278;SDS011;20538;51.528;9.942;2023-04-24T03:51:51;2.45;;;1.65;;
34278;SDS011;20538;51.528;9.942;2023-04-24T03:54:17;3.28;;;1.40;;
34278;SDS011;20538;51.528;9.942;2023-04-24T03:56:43;2.42;;;1.40;;
34278;SDS011;20538;51.528;9.942;2023-04-24T03:59:09;1.73;;;1.25;;
34278;SDS011;20538;51.528;9.942;2023-04-24T04:01:35;2.72;;;1.33;;
34278;SDS011;20538;51.528;9.942;2023-04-24T04:04:02;1.58;;;1.17;;
34278;SDS011;20538;51.528;9.942;2023-04-24T04:06:28;1.42;;;1.20;;
34278;SDS011;20538;51.528;9.942;2023-04-24T04:08:55;3.85;;;1.40;;
34278;SDS011;20538;51.528;9.942;2023-04-24T04:11:21;2.40;;;1.27;;
34278;SDS011;20538;51.528;9.942;2023-04-24T04:13:47;3.58;;;1.50;;
34278;SDS011;20538;51.528;9.942;2023-04-24T04:16:13;1.52;;;1.25;;
34278;SDS011;20538;51.528;9.942;2023-04-24T04:18:39;5.55;;;1.50;;
34278;SDS011;20538;51.528;9.942;2023-04-24T04:21:04;3.13;;;1.52;;
34278;SDS011;20538;51.528;9.942;2023-04-24T04:23:30;1.65;;;1.40;;
34278;SDS011;20538;51.528;9.942;2023-04-24T04:25:57;5.40;;;1.60;;
34278;SDS011;20538;51.528;9.942;2023-04-24T04:28:22;3.20;;;1.70;;
34278;SDS011;20538;51.528;9.942;2023-04-24T04:30:49;5.03;;;1.55;;
34278;SDS011;20538;51.528;9.942;2023-04-24T04:33:18;5.22;;;1.50;;
34278;SDS011;20538;51.528;9.942;2023-04-24T04:35:47;2.78;;;1.33;;
34278;SDS011;20538;51.528;9.942;2023-04-24T04:38:21;2.15;;;1.60;;
34278;SDS011;20538;51.528;9.942;2023-04-24T04:40:47;1.73;;;1.48;;
34278;SDS011;20538;51.528;9.942;2023-04-24T04:43:13;2.10;;;1.58;;
34278;SDS011;20538;51.528;9.942;2023-04-24T04:45:40;1.83;;;1.40;;
34278;SDS011;20538;51.528;9.942;2023-04-24T04:48:07;3.28;;;1.63;;
34278;SDS011;20538;51.528;9.942;2023-04-24T04:50:34;2.08;;;1.40;;
34278;SDS011;20538;51.528;9.942;2023-04-24T04:53:00;2.03;;;1.45;;
34278;SDS011;20538;51.528;9.942;2023-04-24T04:55:25;3.13;;;1.35;;
34278;SDS011;20538;51.528;9.942;2023-04-24T04:57:51;4.40;;;1.63;;
34278;SDS011;20538;51.528;9.942;2023-04-24T05:00:17;4.05;;;1.42;;
34278;SDS011;20538;51.528;9.942;2023-04-24T05:02:43;3.63;;;1.40;;
34278;SDS011;20538;51.528;9.942;2023-04-24T05:05:09;2.88;;;1.20;;
34278;SDS011;20538;51.528;9.942;2023-04-24T05:07:35;1.90;;;1.50;;
34278;SDS011;20538;51.528;9.942;2023-04-24T05:10:00;2.67;;;1.30;;
34278;SDS011;20538;51.528;9.942;2023-04-24T05:12:26;2.88;;;1.35;;
34278;SDS011;20538;51.528;9.942;2023-04-24T05:14:52;1.45;;;1.10;;
34278;SDS011;20538;51.528;9.942;2023-04-24T05:17:17;1.85;;;1.10;;
34278;SDS011;20538;51.528;9.942;2023-04-24T05:19:43;1.40;;;1.17;;
34278;SDS011;20538;51.528;9.942;2023-04-24T05:22:09;1.98;;;1.00;;
34278;SDS011;20538;51.528;9.942;2023-04-24T05:24:36;2.97;;;1.30;;
34278;SDS011;20538;51.528;9.942;2023-04-24T05:27:02;2.85;;;1.30;;
34278;SDS011;20538;51.528;9.942;2023-04-24T05:29:29;2.03;;;1.00;;
34278;SDS011;20538;51.528;9.942;2023-04-24T05:31:58;2.30;;;1.25;;
34278;SDS011;20538;51.528;9.942;2023-04-24T05:34:25;4.15;;;1.45;;
34278;SDS011;20538;51.528;9.942;2023-04-24T05:36:51;3.47;;;1.20;;
34278;SDS011;20538;51.528;9.942;2023-04-24T05:39:16;0.95;;;0.85;;
34278;SDS011;20538;51.528;9.942;2023-04-24T05:41:42;2.08;;;0.82;;
34278;SDS011;20538;51.528;9.942;2023-04-24T05:44:08;1.67;;;0.80;;
34278;SDS011;20538;51.528;9.942;2023-04-24T05:46:34;1.88;;;0.90;;
34278;SDS011;20538;51.528;9.942;2023-04-24T05:49:00;0.80;;;0.75;;
34278;SDS011;20538;51.528;9.942;2023-04-24T05:51:27;1.15;;;0.75;;
34278;SDS011;20538;51.528;9.942;2023-04-24T05:53:53;0.90;;;0.80;;
34278;SDS011;20538;51.528;9.942;2023-04-24T05:56:18;1.35;;;0.77;;
34278;SDS011;20538;51.528;9.942;2023-04-24T05:58:45;2.33;;;0.85;;
34278;SDS011;20538;51.528;9.942;2023-04-24T06:01:11;3.45;;;1.00;;
34278;SDS011;20538;51.528;9.942;2023-04-24T06:03:38;2.78;;;1.02;;
34278;SDS011;20538;51.528;9.942;2023-04-24T06:06:05;2.00;;;0.90;;
34278;SDS011;20538;51.528;9.942;2023-04-24T06:08:31;1.05;;;0.82;;
34278;SDS011;20538;51.528;9.942;2023-04-24T06:10:57;3.65;;;1.13;;
34278;SDS011;20538;51.528;9.942;2023-04-24T06:13:23;2.90;;;1.10;;
34278;SDS011;20538;51.528;9.942;2023-04-24T06:15:49;1.48;;;0.80;;
34278;SDS011;20538;51.528;9.942;2023-04-24T06:18:15;1.88;;;0.70;;
34278;SDS011;20538;51.528;9.942;2023-04-24T06:20:40;2.17;;;0.88;;
34278;SDS011;20538;51.528;9.942;2023-04-24T06:23:06;1.38;;;0.90;;
34278;SDS011;20538;51.528;9.942;2023-04-24T06:25:32;1.88;;;0.98;;
34278;SDS011;20538;51.528;9.942;2023-04-24T06:27:58;2.10;;;1.08;;
34278;SDS011;20538;51.528;9.942;2023-04-24T06:30:23;2.78;;;0.93;;
34278;SDS011;20538;51.528;9.942;2023-04-24T06:32:50;2.28;;;1.10;;
34278;SDS011;20538;51.528;9.942;2023-04-24T06:35:15;3.65;;;1.30;;
34278;SDS011;20538;51.528;9.942;2023-04-24T06:37:41;3.40;;;1.10;;
34278;SDS011;20538;51.528;9.942;2023-04-24T06:40:08;2.03;;;1.10;;
34278;SDS011;20538;51.528;9.942;2023-04-24T06:42:34;2.00;;;1.35;;
34278;SDS011;20538;51.528;9.942;2023-04-24T06:45:00;3.00;;;1.15;;
34278;SDS011;20538;51.528;9.942;2023-04-24T06:47:27;3.33;;;2.08;;
34278;SDS011;20538;51.528;9.942;2023-04-24T06:49:52;3.13;;;1.55;;
34278;SDS011;20538;51.528;9.942;2023-04-24T06:52:18;2.83;;;1.60;;
34278;SDS011;20538;51.528;9.942;2023-04-24T06:54:44;2.70;;;1.63;;
34278;SDS011;20538;51.528;9.942;2023-04-24T06:57:10;4.18;;;1.70;;
34278;SDS011;20538;51.528;9.942;2023-04-24T06:59:36;3.83;;;1.88;;
34278;SDS011;20538;51.528;9.942;2023-04-24T07:02:02;5.85;;;2.40;;
34278;SDS011;20538;51.528;9.942;2023-04-24T07:04:28;3.53;;;2.40;;
34278;SDS011;20538;51.528;9.942;2023-04-24T07:06:55;5.22;;;2.78;;
34278;SDS011;20538;51.528;9.942;2023-04-24T07:09:22;5.57;;;3.33;;
34278;SDS011;20538;51.528;9.942;2023-04-24T07:11:50;3.45;;;2.75;;
34278;SDS011;20538;51.528;9.942;2023-04-24T07:14:16;5.05;;;2.63;;
34278;SDS011;20538;51.528;9.942;2023-04-24T07:16:42;4.82;;;3.10;;
34278;SDS011;20538;51.528;9.942;2023-04-24T07:19:08;4.03;;;3.03;;
34278;SDS011;20538;51.528;9.942;2023-04-24T07:21:34;3.63;;;2.70;;
34278;SDS011;20538;51.528;9.942;2023-04-24T07:24:00;3.80;;;2.83;;
34278;SDS011;20538;51.528;9.942;2023-04-24T07:26:26;3.47;;;2.75;;
34278;SDS011;20538;51.528;9.942;2023-04-24T07:28:53;6.20;;;3.15;;
34278;SDS011;20538;51.528;9.942;2023-04-24T07:31:19;5.60;;;3.38;;
34278;SDS011;20538;51.528;9.942;2023-04-24T07:33:46;5.90;;;3.47;;
34278;SDS011;20538;51.528;9.942;2023-04-24T07:36:11;7.15;;;3.08;;
34278;SDS011;20538;51.528;9.942;2023-04-24T07:38:41;5.60;;;2.88;;
34278;SDS011;20538;51.528;9.942;2023-04-24T07:41:07;4.32;;;2.95;;
34278;SDS011;20538;51.528;9.942;2023-04-24T07:43:33;5.38;;;2.97;;
34278;SDS011;20538;51.528;9.942;2023-04-24T07:45:59;3.20;;;2.40;;
34278;SDS011;20538;51.528;9.942;2023-04-24T07:48:24;3.25;;;2.38;;
34278;SDS011;20538;51.528;9.942;2023-04-24T07:50:51;3.88;;;2.67;;
34278;SDS011;20538;51.528;9.942;2023-04-24T07:53:17;3.13;;;2.40;;
34278;SDS011;20538;51.528;9.942;2023-04-24T07:55:42;5.93;;;2.70;;
34278;SDS011;20538;51.528;9.942;2023-04-24T07:58:08;8.88;;;2.97;;
34278;SDS011;20538;51.528;9.942;2023-04-24T08:00:34;4.70;;;2.80;;
34278;SDS011;20538;51.528;9.942;2023-04-24T08:03:00;2.83;;;2.22;;
34278;SDS011;20538;51.528;9.942;2023-04-24T08:05:26;4.80;;;2.60;;
34278;SDS011;20538;51.528;9.942;2023-04-24T08:07:53;4.63;;;2.60;;
34278;SDS011;20538;51.528;9.942;2023-04-24T08:10:19;4.40;;;2.80;;
34278;SDS011;20538;51.528;9.942;2023-04-24T08:12:46;4.57;;;2.60;;
34278;SDS011;20538;51.528;9.942;2023-04-24T08:15:12;6.78;;;2.30;;
34278;SDS011;20538;51.528;9.942;2023-04-24T08:17:37;2.65;;;2.30;;
34278;SDS011;20538;51.528;9.942;2023-04-24T08:20:03;5.85;;;2.33;;
34278;SDS011;20538;51.528;9.942;2023-04-24T08:22:30;3.70;;;2.33;;
34278;SDS011;20538;51.528;9.942;2023-04-24T08:24:56;4.63;;;2.20;;
34278;SDS011;20538;51.528;9.942;2023-04-24T08:27:22;5.70;;;2.60;;
34278;SDS011;20538;51.528;9.942;2023-04-24T08:29:49;5.95;;;2.55;;
34278;SDS011;20538;51.528;9.942;2023-04-24T08:32:15;4.30;;;2.50;;
34278;SDS011;20538;51.528;9.942;2023-04-24T08:34:40;4.30;;;3.08;;
34278;SDS011;20538;51.528;9.942;2023-04-24T08:37:06;3.47;;;2.85;;
34278;SDS011;20538;51.528;9.942;2023-04-24T08:39:32;5.93;;;2.83;;
34278;SDS011;20538;51.528;9.942;2023-04-24T08:41:57;3.33;;;2.40;;
34278;SDS011;20538;51.528;9.942;2023-04-24T08:44:30;4.88;;;2.15;;
34278;SDS011;20538;51.528;9.942;2023-04-24T08:47:01;2.85;;;2.20;;
34278;SDS011;20538;51.528;9.942;2023-04-24T08:49:28;5.00;;;2.78;;
34278;SDS011;20538;51.528;9.942;2023-04-24T08:51:54;5.90;;;2.13;;
34278;SDS011;20538;51.528;9.942;2023-04-24T08:54:20;3.05;;;1.70;;
34278;SDS011;20538;51.528;9.942;2023-04-24T08:56:47;3.45;;;2.10;;
34278;SDS011;20538;51.528;9.942;2023-04-24T08:59:14;2.55;;;2.03;;
34278;SDS011;20538;51.528;9.942;2023-04-24T09:01:41;2.88;;;2.17;;
34278;SDS011;20538;51.528;9.942;2023-04-24T09:04:09;3.00;;;2.03;;
34278;SDS011;20538;51.528;9.942;2023-04-24T09:06:37;3.67;;;2.28;;
34278;SDS011;20538;51.528;9.942;2023-04-24T09:09:05;2.83;;;2.17;;
34278;SDS011;20538;51.528;9.942;2023-04-24T09:11:33;4.00;;;2.28;;
34278;SDS011;20538;51.528;9.942;2023-04-24T09:13:59;4.95;;;2.50;;
34278;SDS011;20538;51.528;9.942;2023-04-24T09:16:26;6.18;;;2.20;;
34278;SDS011;20538;51.528;9.942;2023-04-24T09:18:52;2.88;;;2.30;;
34278;SDS011;20538;51.528;9.942;2023-04-24T09:21:20;3.65;;;2.08;;
34278;SDS011;20538;51.528;9.942;2023-04-24T09:23:47;6.28;;;2.63;;
34278;SDS011;20538;51.528;9.942;2023-04-24T09:26:30;3.42;;;2.10;;
34278;SDS011;20538;51.528;9.942;2023-04-24T09:28:57;4.22;;;2.63;;
34278;SDS011;20538;51.528;9.942;2023-04-24T09:31:24;3.58;;;2.25;;
34278;SDS011;20538;51.528;9.942;2023-04-24T09:34:14;6.85;;;2.30;;
34278;SDS011;20538;51.528;9.942;2023-04-24T09:36:39;2.58;;;2.28;;
34278;SDS011;20538;51.528;9.942;2023-04-24T09:39:12;3.10;;;2.40;;
34278;SDS011;20538;51.528;9.942;2023-04-24T09:41:46;4.55;;;2.55;;
34278;SDS011;20538;51.528;9.942;2023-04-24T09:44:20;3.72;;;2.88;;
34278;SDS011;20538;51.528;9.942;2023-04-24T09:46:58;4.55;;;3.10;;
34278;SDS011;20538;51.528;9.942;2023-04-24T09:49:31;5.72;;;3.05;;
34278;SDS011;20538;51.528;9.942;2023-04-24T09:52:06;7.80;;;3.38;;
34278;SDS011;20538;51.528;9.942;2023-04-24T09:54:33;5.22;;;3.22;;
34278;SDS011;20538;51.528;9.942;2023-04-24T09:56:59;3.88;;;2.75;;
34278;SDS011;20538;51.528;9.942;2023-04-24T09:59:27;5.70;;;2.85;;
34278;SDS011;20538;51.528;9.942;2023-04-24T10:01:54;3.63;;;2.80;;
34278;SDS011;20538;51.528;9.942;2023-04-24T10:04:23;7.63;;;3.28;;
34278;SDS011;20538;51.528;9.942;2023-04-24T10:06:51;5.82;;;2.80;;
34278;SDS011;20538;51.528;9.942;2023-04-24T10:09:20;4.97;;;2.72;;
34278;SDS011;20538;51.528;9.942;2023-04-24T10:11:50;4.45;;;2.67;;
34278;SDS011;20538;51.528;9.942;2023-04-24T10:14:19;3.28;;;2.25;;
34278;SDS011;20538;51.528;9.942;2023-04-24T10:16:46;3.33;;;2.33;;
34278;SDS011;20538;51.528;9.942;2023-04-24T10:19:14;5.30;;;2.35;;
34278;SDS011;20538;51.528;9.942;2023-04-24T10:21:41;4.00;;;2.60;;
34278;SDS011;20538;51.528;9.942;2023-04-24T10:24:12;4.47;;;2.40;;
34278;SDS011;20538;51.528;9.942;2023-04-24T10:26:38;4.05;;;2.42;;
34278;SDS011;20538;51.528;9.942;2023-04-24T10:29:05;4.82;;;2.20;;
34278;SDS011;20538;51.528;9.942;2023-04-24T10:31:35;4.32;;;2.10;;
34278;SDS011;20538;51.528;9.942;2023-04-24T10:34:02;5.93;;;2.00;;
34278;SDS011;20538;51.528;9.942;2023-04-24T10:36:30;4.13;;;2.53;;
34278;SDS011;20538;51.528;9.942;2023-04-24T10:38:58;3.33;;;2.88;;
34278;SDS011;20538;51.528;9.942;2023-04-24T10:41:26;7.00;;;2.47;;
34278;SDS011;20538;51.528;9.942;2023-04-24T10:44:25;3.25;;;2.42;;
34278;SDS011;20538;51.528;9.942;2023-04-24T10:46:47;7.05;;;2.50;;
34278;SDS011;20538;51.528;9.942;2023-04-24T10:49:29;5.72;;;2.22;;
34278;SDS011;20538;51.528;9.942;2023-04-24T10:51:59;5.28;;;2.95;;
34278;SDS011;20538;51.528;9.942;2023-04-24T10:54:28;2.55;;;2.03;;
34278;SDS011;20538;51.528;9.942;2023-04-24T10:59:47;2.42;;;1.45;;
34278;SDS011;20538;51.528;9.942;2023-04-24T11:02:17;1.30;;;1.20;;
34278;SDS011;20538;51.528;9.942;2023-04-24T11:04:43;3.33;;;1.73;;
34278;SDS011;20538;51.528;9.942;2023-04-24T11:07:12;3.45;;;1.50;;
34278;SDS011;20538;51.528;9.942;2023-04-24T11:09:38;3.95;;;1.60;;
34278;SDS011;20538;51.528;9.942;2023-04-24T11:12:08;2.45;;;1.50;;
34278;SDS011;20538;51.528;9.942;2023-04-24T11:17:35;1.70;;;1.17;;
34278;SDS011;20538;51.528;9.942;2023-04-24T11:20:07;2.30;;;1.50;;
34278;SDS011;20538;51.528;9.942;2023-04-24T11:22:35;2.67;;;1.83;;
34278;SDS011;20538;51.528;9.942;2023-04-24T11:25:06;1.95;;;1.45;;
34278;SDS011;20538;51.528;9.942;2023-04-24T11:27:40;1.83;;;1.35;;
34278;SDS011;20538;51.528;9.942;2023-04-24T11:30:09;3.45;;;1.30;;
34278;SDS011;20538;51.528;9.942;2023-04-24T11:32:36;1.88;;;1.60;;
34278;SDS011;20538;51.528;9.942;2023-04-24T11:35:08;1.60;;;1.50;;
34278;SDS011;20538;51.528;9.942;2023-04-24T11:37:40;2.92;;;1.77;;
34278;SDS011;20538;51.528;9.942;2023-04-24T11:40:08;2.38;;;2.05;;
34278;SDS011;20538;51.528;9.942;2023-04-24T11:42:37;2.13;;;1.92;;
34278;SDS011;20538;51.528;9.942;2023-04-24T11:45:07;5.15;;;2.60;;
34278;SDS011;20538;51.528;9.942;2023-04-24T11:47:33;4.25;;;2.58;;
34278;SDS011;20538;51.528;9.942;2023-04-24T11:49:59;3.58;;;1.58;;
34278;SDS011;20538;51.528;9.942;2023-04-24T11:52:29;1.92;;;1.60;;
34278;SDS011;20538;51.528;9.942;2023-04-24T11:54:55;1.38;;;1.27;;
34278;SDS011;20538;51.528;9.942;2023-04-24T11:57:24;2.17;;;1.50;;
34278;SDS011;20538;51.528;9.942;2023-04-24T11:59:53;2.00;;;1.08;;
34278;SDS011;20538;51.528;9.942;2023-04-24T12:02:20;1.55;;;1.27;;
34278;SDS011;20538;51.528;9.942;2023-04-24T12:04:50;1.42;;;1.33;;
34278;SDS011;20538;51.528;9.942;2023-04-24T12:07:16;1.33;;;1.10;;
34278;SDS011;20538;51.528;9.942;2023-04-24T12:09:49;2.15;;;1.20;;
34278;SDS011;20538;51.528;9.942;2023-04-24T12:12:15;1.27;;;0.90;;
34278;SDS011;20538;51.528;9.942;2023-04-24T12:14:43;0.80;;;0.70;;
34278;SDS011;20538;51.528;9.942;2023-04-24T12:17:09;3.00;;;0.80;;
34278;SDS011;20538;51.528;9.942;2023-04-24T12:19:35;1.00;;;0.70;;
34278;SDS011;20538;51.528;9.942;2023-04-24T12:22:02;1.00;;;0.50;;
34278;SDS011;20538;51.528;9.942;2023-04-24T12:24:30;0.40;;;0.30;;
34278;SDS011;20538;51.528;9.942;2023-04-24T12:26:59;0.38;;;0.38;;
34278;SDS011;20538;51.528;9.942;2023-04-24T12:29:26;0.10;;;0.10;;
34278;SDS011;20538;51.528;9.942;2023-04-24T12:31:53;0.20;;;0.20;;
34278;SDS011;20538;51.528;9.942;2023-04-24T12:34:20;0.30;;;0.30;;
34278;SDS011;20538;51.528;9.942;2023-04-24T12:36:47;0.60;;;0.20;;
34278;SDS011;20538;51.528;9.942;2023-04-24T12:39:16;0.73;;;0.28;;
34278;SDS011;20538;51.528;9.942;2023-04-24T12:41:55;0.20;;;0.20;;
34278;SDS011;20538;51.528;9.942;2023-04-24T12:44:31;0.20;;;0.20;;
34278;SDS011;20538;51.528;9.942;2023-04-24T12:46:59;1.00;;;0.13;;
34278;SDS011;20538;51.528;9.942;2023-04-24T12:49:25;1.75;;;0.30;;
34278;SDS011;20538;51.528;9.942;2023-04-24T12:51:51;0.20;;;0.20;;
34278;SDS011;20538;51.528;9.942;2023-04-24T12:54:18;0.38;;;0.30;;
34278;SDS011;20538;51.528;9.942;2023-04-24T12:56:43;0.35;;;0.35;;
34278;SDS011;20538;51.528;9.942;2023-04-24T12:59:09;0.47;;;0.40;;
34278;SDS011;20538;51.528;9.942;2023-04-24T13:01:37;0.40;;;0.40;;
34278;SDS011;20538;51.528;9.942;2023-04-24T13:04:04;1.67;;;0.40;;
34278;SDS011;20538;51.528;9.942;2023-04-24T13:06:30;0.30;;;0.30;;
34278;SDS011;20538;51.528;9.942;2023-04-24T13:08:56;0.43;;;0.40;;
34278;SDS011;20538;51.528;9.942;2023-04-24T13:11:23;0.40;;;0.40;;
34278;SDS011;20538;51.528;9.942;2023-04-24T13:13:49;0.57;;;0.40;;
34278;SDS011;20538;51.528;9.942;2023-04-24T13:16:17;1.75;;;0.50;;
34278;SDS011;20538;51.528;9.942;2023-04-24T13:18:44;0.63;;;0.50;;
34278;SDS011;20538;51.528;9.942;2023-04-24T13:21:09;1.25;;;0.68;;
34278;SDS011;20538;51.528;9.942;2023-04-24T13:23:36;0.95;;;0.40;;
34278;SDS011;20538;51.528;9.942;2023-04-24T13:26:02;0.30;;;0.30;;
34278;SDS011;20538;51.528;9.942;2023-04-24T13:28:28;0.50;;;0.25;;
34278;SDS011;20538;51.528;9.942;2023-04-24T13:30:55;2.55;;;0.50;;
34278;SDS011;20538;51.528;9.942;2023-04-24T13:33:20;0.20;;;0.20;;
34278;SDS011;20538;51.528;9.942;2023-04-24T13:35:46;0.22;;;0.22;;
34278;SDS011;20538;51.528;9.942;2023-04-24T13:38:12;0.43;;;0.40;;
34278;SDS011;20538;51.528;9.942;2023-04-24T13:40:37;0.60;;;0.30;;
34278;SDS011;20538;51.528;9.942;2023-04-24T13:43:03;0.40;;;0.30;;
34278;SDS011;20538;51.528;9.942;2023-04-24T13:45:28;0.30;;;0.30;;
34278;SDS011;20538;51.528;9.942;2023-04-24T13:47:54;1.08;;;0.38;;
34278;SDS011;20538;51.528;9.942;2023-04-24T13:50:21;0.43;;;0.35;;
34278;SDS011;20538;51.528;9.942;2023-04-24T13:52:47;1.00;;;0.40;;
34278;SDS011;20538;51.528;9.942;2023-04-24T13:55:13;0.50;;;0.50;;
34278;SDS011;20538;51.528;9.942;2023-04-24T13:57:38;0.45;;;0.30;;
34278;SDS011;20538;51.528;9.942;2023-04-24T14:00:04;0.32;;;0.32;;
34278;SDS011;20538;51.528;9.942;2023-04-24T14:02:31;0.32;;;0.30;;
34278;SDS011;20538;51.528;9.942;2023-04-24T14:04:57;1.42;;;0.65;;
34278;SDS011;20538;51.528;9.942;2023-04-24T14:07:23;0.70;;;0.50;;
34278;SDS011;20538;51.528;9.942;2023-04-24T14:09:48;3.20;;;0.60;;
34278;SDS011;20538;51.528;9.942;2023-04-24T14:12:15;1.52;;;0.82;;
34278;SDS011;20538;51.528;9.942;2023-04-24T14:14:43;1.00;;;0.60;;
34278;SDS011;20538;51.528;9.942;2023-04-24T14:17:09;0.50;;;0.50;;
34278;SDS011;20538;51.528;9.942;2023-04-24T14:19:35;0.90;;;0.50;;
34278;SDS011;20538;51.528;9.942;2023-04-24T14:22:01;1.77;;;0.50;;
34278;SDS011;20538;51.528;9.942;2023-04-24T14:24:27;1.20;;;0.40;;
34278;SDS011;20538;51.528;9.942;2023-04-24T14:26:55;0.80;;;0.50;;
34278;SDS011;20538;51.528;9.942;2023-04-24T14:29:22;0.38;;;0.38;;
34278;SDS011;20538;51.528;9.942;2023-04-24T14:31:47;0.80;;;0.57;;
34278;SDS011;20538;51.528;9.942;2023-04-24T14:34:13;1.02;;;0.90;;
34278;SDS011;20538;51.528;9.942;2023-04-24T14:36:40;2.15;;;1.00;;
34278;SDS011;20538;51.528;9.942;2023-04-24T14:39:05;1.00;;;0.90;;
34278;SDS011;20538;51.528;9.942;2023-04-24T14:41:32;3.03;;;1.20;;
34278;SDS011;20538;51.528;9.942;2023-04-24T14:44:00;1.20;;;1.10;;
34278;SDS011;20538;51.528;9.942;2023-04-24T14:46:28;1.98;;;1.45;;
34278;SDS011;20538;51.528;9.942;2023-04-24T14:48:56;2.30;;;1.52;;
34278;SDS011;20538;51.528;9.942;2023-04-24T14:51:22;3.72;;;1.88;;